Time;durP1;ratioP1;P1;durP2;ratioP2;P2;SDS_P1;SDS_P2;PMS_P1;PMS_P2;Temp;Humidity;BMP_temperature;BMP_pressure;BME280_temperature;BME280_humidity;BME280_pressure;Samples;Min_cycle;Max_cycle;Signal;HPM_P1;HPM_P2
2022/10/18 00:02:10;;;;;;;12.70;8.57;;;12.60;99.90;;;;;;4995979;28;20487;-80
2022/10/18 00:04:36;;;;;;;16.67;9.57;;;12.60;99.90;;;;;;4974131;28;20450;-80
2022/10/18 00:07:02;;;;;;;13.25;8.82;;;12.60;99.90;;;;;;4962603;28;20058;-82
2022/10/18 00:09:28;;;;;;;12.02;8.57;;;12.60;99.90;;;;;;4970302;28;20035;-80
2022/10/18 00:11:54;;;;;;;12.10;8.20;;;12.70;99.90;;;;;;4976006;28;20666;-80
2022/10/18 00:14:20;;;;;;;12.13;8.25;;;12.70;99.90;;;;;;4998067;28;20535;-80
2022/10/18 00:16:46;;;;;;;11.77;7.95;;;12.70;99.90;;;;;;4963119;28;20039;-82
2022/10/18 00:19:11;;;;;;;16.67;8.15;;;12.70;99.90;;;;;;4972166;28;20042;-83
2022/10/18 00:21:37;;;;;;;12.18;8.40;;;12.70;99.90;;;;;;4953828;28;20134;-82
2022/10/18 00:24:03;;;;;;;13.75;9.32;;;12.60;99.90;;;;;;4972400;28;20064;-81
2022/10/18 00:26:30;;;;;;;17.17;8.35;;;12.60;99.90;;;;;;4960569;28;20045;-83
2022/10/18 00:28:59;;;;;;;11.13;8.10;;;12.60;99.90;;;;;;4979337;28;20062;-82
2022/10/18 00:31:30;;;;;;;11.80;7.85;;;12.50;99.90;;;;;;5011252;28;20345;-81
2022/10/18 00:34:02;;;;;;;10.23;7.53;;;12.50;99.90;;;;;;4977915;28;20034;-82
2022/10/18 00:36:29;;;;;;;12.55;7.63;;;12.50;99.90;;;;;;4980780;28;20034;-82
2022/10/18 00:38:56;;;;;;;12.32;8.20;;;12.50;99.90;;;;;;4975538;28;20178;-83
2022/10/18 00:41:24;;;;;;;13.60;8.98;;;12.50;99.90;;;;;;4999958;28;20255;-83
2022/10/18 00:44:10;;;;;;;13.10;8.23;;;12.50;99.90;;;;;;4998678;28;20538;-80
2022/10/18 00:46:37;;;;;;;;;;;12.50;99.90;;;;;;4995376;28;20451;-83
2022/10/18 00:49:10;;;;;;;14.65;8.38;;;12.50;99.90;;;;;;4977069;28;19918;-82
2022/10/18 00:51:41;;;;;;;11.80;8.05;;;12.50;99.90;;;;;;4996848;28;20038;-82
2022/10/18 00:54:07;;;;;;;12.13;8.43;;;12.50;99.90;;;;;;4974211;28;20034;-82
2022/10/18 00:56:33;;;;;;;12.18;9.18;;;12.50;99.90;;;;;;5011819;28;20034;-84
2022/10/18 00:58:59;;;;;;;12.23;8.82;;;12.40;99.90;;;;;;4973728;28;20562;-82
2022/10/18 01:01:25;;;;;;;13.30;8.80;;;12.40;99.90;;;;;;4978225;28;20601;-82
2022/10/18 01:03:52;;;;;;;12.75;9.32;;;12.30;99.90;;;;;;4986230;28;20027;-83
2022/10/18 01:06:18;;;;;;;16.85;8.98;;;12.40;99.90;;;;;;4996211;28;20130;-82
2022/10/18 01:09:07;;;;;;;13.55;8.45;;;12.30;99.90;;;;;;4979927;28;20038;-81
2022/10/18 01:12:14;;;;;;;12.07;8.25;;;12.30;99.90;;;;;;4984244;28;20041;-84
2022/10/18 01:14:59;;;;;;;13.50;9.40;;;12.30;99.90;;;;;;4972498;28;20109;-81
2022/10/18 01:17:43;;;;;;;12.83;9.40;;;12.30;99.90;;;;;;4999163;28;20062;-83
2022/10/18 01:20:18;;;;;;;10.90;8.43;;;12.20;99.90;;;;;;4977400;28;20133;-83
2022/10/18 01:22:49;;;;;;;14.47;8.30;;;12.30;99.90;;;;;;4971334;28;20145;-81
2022/10/18 01:25:47;;;;;;;16.05;8.25;;;12.30;99.90;;;;;;4975689;28;20042;-81
2022/10/18 01:28:50;;;;;;;10.10;7.45;;;12.30;99.90;;;;;;4990149;28;20038;-82
2022/10/18 01:31:20;;;;;;;13.02;7.53;;;12.30;99.90;;;;;;4999734;28;20069;-81
2022/10/18 01:33:56;;;;;;;9.52;6.82;;;12.20;99.90;;;;;;5001974;28;20125;-82
2022/10/18 01:36:33;;;;;;;11.63;6.38;;;12.20;99.90;;;;;;5005466;28;20034;-82
2022/10/18 01:39:04;;;;;;;9.13;6.25;;;12.20;99.90;;;;;;4970125;28;20041;-83
2022/10/18 01:41:31;;;;;;;10.07;6.35;;;12.20;99.90;;;;;;4975667;28;20037;-81
2022/10/18 01:44:00;;;;;;;8.18;5.68;;;12.20;99.90;;;;;;4962446;28;20041;-83
2022/10/18 01:46:28;;;;;;;10.57;6.65;;;12.20;99.90;;;;;;4973388;28;20049;-80
2022/10/18 01:48:55;;;;;;;8.43;6.13;;;12.10;99.90;;;;;;4973896;28;20074;-82
2022/10/18 01:51:30;;;;;;;7.30;5.78;;;12.10;99.90;;;;;;4974388;28;20057;-81
2022/10/18 01:53:56;;;;;;;10.40;6.30;;;12.10;99.90;;;;;;4986623;28;20031;-81
2022/10/18 01:56:40;;;;;;;7.07;5.82;;;12.00;99.90;;;;;;4988707;28;20092;-80
2022/10/18 01:59:15;;;;;;;7.95;6.35;;;12.00;99.90;;;;;;4988437;28;20034;-81
2022/10/18 02:01:56;;;;;;;6.00;5.13;;;12.00;99.90;;;;;;4996533;28;20491;-83
2022/10/18 02:04:57;;;;;;;24.67;5.80;;;12.00;99.90;;;;;;5006646;28;20520;-83
2022/10/18 02:07:35;;;;;;;13.32;5.57;;;11.90;99.90;;;;;;4976028;28;20054;-82
2022/10/18 02:10:07;;;;;;;6.53;5.43;;;11.80;99.90;;;;;;4985369;28;20038;-82
2022/10/18 02:12:35;;;;;;;8.63;5.57;;;11.70;99.90;;;;;;4992251;28;20105;-82
2022/10/18 02:15:02;;;;;;;12.45;5.50;;;11.70;99.90;;;;;;4972743;28;20519;-81
2022/10/18 02:17:29;;;;;;;8.00;4.95;;;11.70;99.90;;;;;;4961880;28;20027;-82
2022/10/18 02:19:56;;;;;;;8.18;4.78;;;11.70;99.90;;;;;;4989482;28;20035;-82
2022/10/18 02:22:28;;;;;;;5.90;5.30;;;11.80;99.90;;;;;;5008668;28;20033;-81
2022/10/18 02:24:56;;;;;;;7.03;4.97;;;11.70;99.90;;;;;;4978053;28;20042;-81
2022/10/18 02:27:22;;;;;;;5.32;4.75;;;11.70;99.90;;;;;;4974836;28;20031;-81
2022/10/18 02:29:48;;;;;;;5.07;4.57;;;11.70;99.90;;;;;;4958707;28;20109;-82
2022/10/18 02:32:26;;;;;;;7.28;5.60;;;11.70;99.90;;;;;;4993062;28;20034;-80
2022/10/18 02:35:24;;;;;;;6.88;5.82;;;11.70;99.90;;;;;;4993774;28;20030;-81
2022/10/18 02:37:52;;;;;;;7.53;5.97;;;11.70;99.90;;;;;;4993672;28;20046;-80
2022/10/18 02:40:19;;;;;;;7.63;6.10;;;11.70;99.90;;;;;;4993541;28;20124;-80
2022/10/18 02:42:52;;;;;;;7.43;5.85;;;11.70;99.90;;;;;;5001182;28;20031;-81
2022/10/18 02:45:18;;;;;;;8.70;5.93;;;11.70;99.90;;;;;;4979723;28;20026;-81
2022/10/18 02:47:44;;;;;;;8.27;6.22;;;11.70;99.90;;;;;;5018305;28;20451;-81
2022/10/18 02:50:10;;;;;;;6.63;5.63;;;11.60;99.90;;;;;;4989028;28;20087;-81
2022/10/18 02:52:36;;;;;;;8.20;6.28;;;11.60;99.90;;;;;;5007385;28;20054;-81
2022/10/18 02:55:02;;;;;;;7.07;5.50;;;11.60;99.90;;;;;;4991609;28;20054;-81
2022/10/18 02:57:29;;;;;;;11.73;5.68;;;11.60;99.90;;;;;;5004640;28;20030;-81
2022/10/18 02:59:54;;;;;;;6.57;5.10;;;11.60;99.90;;;;;;4974777;28;20092;-81
2022/10/18 03:02:21;;;;;;;5.90;5.10;;;11.60;99.90;;;;;;4976077;28;20039;-80
2022/10/18 03:04:47;;;;;;;7.55;5.05;;;11.60;99.90;;;;;;4955327;28;20030;-80
2022/10/18 03:07:13;;;;;;;6.80;4.30;;;11.50;99.90;;;;;;4990849;28;20041;-81
2022/10/18 03:09:38;;;;;;;7.38;5.10;;;11.50;99.90;;;;;;4971750;28;20031;-84
2022/10/18 03:12:04;;;;;;;6.95;4.65;;;11.50;99.90;;;;;;5003140;28;20034;-82
2022/10/18 03:14:30;;;;;;;4.90;4.47;;;11.50;99.90;;;;;;4978507;28;20022;-81
2022/10/18 03:16:55;;;;;;;6.40;4.80;;;11.50;99.90;;;;;;4994316;28;20490;-83
2022/10/18 03:19:21;;;;;;;6.10;5.28;;;11.50;99.90;;;;;;4990630;28;20034;-80
2022/10/18 03:21:47;;;;;;;7.75;5.97;;;11.40;99.90;;;;;;4997762;28;20044;-82
2022/10/18 03:24:13;;;;;;;13.38;7.82;;;11.40;99.90;;;;;;4957571;28;20038;-81
2022/10/18 03:26:39;;;;;;;15.60;9.18;;;11.40;99.90;;;;;;5003055;28;20088;-84
2022/10/18 03:29:04;;;;;;;19.48;8.95;;;11.40;99.90;;;;;;4980638;28;20042;-84
2022/10/18 03:31:31;;;;;;;12.18;8.35;;;11.40;99.90;;;;;;4985155;28;20046;-81
2022/10/18 03:33:57;;;;;;;25.83;7.40;;;11.40;99.90;;;;;;5011577;28;20471;-82
2022/10/18 03:36:23;;;;;;;21.13;7.80;;;11.40;99.90;;;;;;4976887;28;20088;-82
2022/10/18 03:38:49;;;;;;;34.83;10.00;;;11.40;99.90;;;;;;5000619;28;20023;-81
2022/10/18 03:41:15;;;;;;;35.97;11.60;;;11.40;99.90;;;;;;4982077;28;20411;-80
2022/10/18 03:43:40;;;;;;;24.38;10.93;;;11.30;99.90;;;;;;4994132;28;20454;-81
2022/10/18 03:46:06;;;;;;;25.75;11.30;;;11.30;99.90;;;;;;4960426;28;20034;-81
2022/10/18 03:48:32;;;;;;;13.40;9.95;;;11.30;99.90;;;;;;4983486;28;381909;-81
2022/10/18 03:50:58;;;;;;;13.85;9.50;;;11.30;99.90;;;;;;4965078;28;20056;-81
2022/10/18 03:53:24;;;;;;;13.07;7.03;;;11.30;99.90;;;;;;5007048;28;20058;-80
2022/10/18 03:55:51;;;;;;;16.90;6.80;;;11.40;99.90;;;;;;4988276;28;20019;-80
2022/10/18 03:58:17;;;;;;;19.02;10.10;;;11.40;99.90;;;;;;4988185;28;20125;-81
2022/10/18 04:00:43;;;;;;;13.35;10.57;;;11.40;99.90;;;;;;4962819;28;20491;-82
2022/10/18 04:03:08;;;;;;;16.55;11.38;;;11.30;99.90;;;;;;4988313;28;20507;-81
2022/10/18 04:05:35;;;;;;;20.20;14.27;;;11.30;99.90;;;;;;4985148;28;20125;-82
2022/10/18 04:08:02;;;;;;;21.45;14.70;;;11.30;99.90;;;;;;4997319;28;20406;-82
2022/10/18 04:10:28;;;;;;;15.68;10.98;;;11.30;99.90;;;;;;5006557;28;21545;-82
2022/10/18 04:12:54;;;;;;;14.88;10.15;;;11.30;99.90;;;;;;4990519;28;20129;-83
2022/10/18 04:15:19;;;;;;;18.23;12.90;;;11.30;99.90;;;;;;4990421;28;20129;-82
2022/10/18 04:17:45;;;;;;;15.13;10.45;;;11.30;99.90;;;;;;4957989;28;20030;-80
2022/10/18 04:20:11;;;;;;;12.60;8.75;;;11.30;99.90;;;;;;4972783;28;20529;-81
2022/10/18 04:22:37;;;;;;;10.43;6.40;;;11.40;99.90;;;;;;4990417;28;20615;-81
2022/10/18 04:25:04;;;;;;;16.92;6.05;;;11.40;99.90;;;;;;4958084;28;20038;-81
2022/10/18 04:27:29;;;;;;;26.02;10.32;;;11.30;99.90;;;;;;5000548;28;20039;-81
2022/10/18 04:29:55;;;;;;;29.23;12.63;;;11.30;99.90;;;;;;5003833;28;20043;-82
2022/10/18 04:32:21;;;;;;;18.85;11.40;;;11.40;99.90;;;;;;5003841;28;20038;-81
2022/10/18 04:34:47;;;;;;;27.35;11.60;;;11.40;99.90;;;;;;4990408;28;20065;-80
2022/10/18 04:37:13;;;;;;;37.42;11.52;;;11.50;99.90;;;;;;4986854;28;20046;-81
2022/10/18 04:39:38;;;;;;;87.32;15.23;;;11.50;99.90;;;;;;4990522;28;20064;-81
2022/10/18 04:42:04;;;;;;;34.30;14.43;;;11.60;99.90;;;;;;4998741;28;20052;-80
2022/10/18 04:44:30;;;;;;;19.50;11.02;;;11.60;99.90;;;;;;4974410;28;20099;-80
2022/10/18 04:46:55;;;;;;;15.02;10.98;;;11.60;99.90;;;;;;5004416;28;20038;-81
2022/10/18 04:49:21;;;;;;;11.68;8.20;;;11.60;99.90;;;;;;5009913;28;20033;-80
2022/10/18 04:51:47;;;;;;;74.88;11.77;;;11.60;99.90;;;;;;4980835;28;20562;-80
2022/10/18 04:54:13;;;;;;;63.47;13.90;;;11.60;99.90;;;;;;4994153;28;20062;-82
2022/10/18 04:56:39;;;;;;;70.43;13.07;;;11.70;99.90;;;;;;4999138;28;20085;-80
2022/10/18 04:59:05;;;;;;;76.47;13.70;;;11.60;99.90;;;;;;4974029;28;20120;-81
2022/10/18 05:01:30;;;;;;;30.00;18.08;;;11.60;99.90;;;;;;4984096;28;20057;-81
2022/10/18 05:03:56;;;;;;;18.95;13.00;;;11.60;99.90;;;;;;4979729;28;20027;-82
2022/10/18 05:06:22;;;;;;;18.70;12.60;;;11.60;99.90;;;;;;4973036;28;20038;-80
2022/10/18 05:08:48;;;;;;;13.35;10.52;;;11.60;99.90;;;;;;4982110;28;20038;-83
2022/10/18 05:11:14;;;;;;;18.38;13.25;;;11.70;99.90;;;;;;5011594;28;20053;-83
2022/10/18 05:13:40;;;;;;;17.45;12.48;;;11.70;99.90;;;;;;5011411;28;20033;-82
2022/10/18 05:16:06;;;;;;;19.67;13.45;;;11.70;99.90;;;;;;4999546;28;20033;-82
2022/10/18 05:18:32;;;;;;;17.65;13.30;;;11.80;99.90;;;;;;4953175;28;20044;-84
2022/10/18 05:20:58;;;;;;;17.90;12.25;;;11.90;99.90;;;;;;5001505;28;20049;-82
2022/10/18 05:23:24;;;;;;;17.55;13.02;;;11.90;99.90;;;;;;4978531;28;20039;-80
2022/10/18 05:25:49;;;;;;;16.40;12.18;;;12.00;99.90;;;;;;4982464;28;20034;-83
2022/10/18 05:28:16;;;;;;;19.08;13.90;;;12.00;99.90;;;;;;5009845;28;20058;-81
2022/10/18 05:30:41;;;;;;;17.98;12.70;;;12.00;99.90;;;;;;4998821;28;20038;-83
2022/10/18 05:33:07;;;;;;;15.68;11.90;;;11.90;99.90;;;;;;4982825;28;20026;-81
2022/10/18 05:35:34;;;;;;;17.95;12.75;;;11.90;99.90;;;;;;4967575;28;20491;-82
2022/10/18 05:38:04;;;;;;;16.85;12.40;;;11.90;99.90;;;;;;4990781;28;20120;-82
2022/10/18 05:40:31;;;;;;;16.00;11.93;;;11.90;99.90;;;;;;4979469;28;20051;-82
2022/10/18 05:42:57;;;;;;;17.13;12.02;;;12.00;99.90;;;;;;4973768;28;20519;-81
2022/10/18 05:45:23;;;;;;;16.90;11.52;;;12.00;99.90;;;;;;4983206;28;20124;-81
2022/10/18 05:47:48;;;;;;;17.23;11.20;;;12.00;99.90;;;;;;5006751;28;20041;-83
2022/10/18 05:50:14;;;;;;;14.50;10.40;;;12.00;99.90;;;;;;4990071;28;20035;-82
2022/10/18 05:52:40;;;;;;;14.20;10.20;;;12.00;99.90;;;;;;4972580;28;20052;-84
2022/10/18 05:55:06;;;;;;;14.70;10.82;;;12.00;99.90;;;;;;4973220;28;20534;-83
2022/10/18 05:57:32;;;;;;;13.23;10.60;;;12.00;99.90;;;;;;4980358;28;20031;-84
2022/10/18 05:59:58;;;;;;;13.82;9.98;;;12.00;99.90;;;;;;4980884;28;20058;-82
2022/10/18 06:02:23;;;;;;;13.35;10.48;;;12.00;99.90;;;;;;5005127;28;20080;-81
2022/10/18 06:04:49;;;;;;;14.55;10.23;;;12.10;99.90;;;;;;4972169;28;20069;-81
2022/10/18 06:07:15;;;;;;;14.25;10.65;;;12.10;99.90;;;;;;4984162;28;20034;-85
2022/10/18 06:09:41;;;;;;;13.00;11.02;;;12.10;99.90;;;;;;4974346;28;20034;-83
2022/10/18 06:12:07;;;;;;;12.90;10.05;;;12.10;99.90;;;;;;4956074;28;20046;-82
2022/10/18 06:14:34;;;;;;;13.20;9.95;;;12.10;99.90;;;;;;4973068;28;20050;-83
2022/10/18 06:17:00;;;;;;;14.15;10.90;;;12.10;99.90;;;;;;4938571;28;20034;-81
2022/10/18 06:19:25;;;;;;;13.68;10.15;;;12.20;99.90;;;;;;4964831;28;20022;-82
2022/10/18 06:21:51;;;;;;;16.77;9.85;;;12.20;99.90;;;;;;4984877;28;20033;-84
2022/10/18 06:24:17;;;;;;;12.27;9.68;;;12.30;99.90;;;;;;4969613;28;20043;-84
2022/10/18 06:26:43;;;;;;;12.20;9.90;;;12.20;99.90;;;;;;4960971;28;20066;-81
2022/10/18 06:29:09;;;;;;;11.88;10.00;;;12.30;99.90;;;;;;4972261;28;20474;-84
2022/10/18 06:31:35;;;;;;;13.82;9.65;;;12.30;99.90;;;;;;4957762;28;20031;-83
2022/10/18 06:34:01;;;;;;;16.65;10.80;;;12.30;99.90;;;;;;4972163;28;20177;-82
2022/10/18 06:36:27;;;;;;;15.88;9.85;;;12.20;99.90;;;;;;4952775;28;20130;-81
2022/10/18 06:38:55;;;;;;;11.75;9.48;;;12.20;99.90;;;;;;4970103;28;20042;-81
2022/10/18 06:41:21;;;;;;;12.50;10.05;;;12.20;99.90;;;;;;4988422;28;20062;-82
2022/10/18 06:43:52;;;;;;;12.88;10.45;;;12.20;99.90;;;;;;4955498;28;20042;-81
2022/10/18 06:46:18;;;;;;;13.00;10.30;;;12.20;99.90;;;;;;4988086;28;20034;-82
2022/10/18 06:48:44;;;;;;;11.50;9.98;;;12.20;99.90;;;;;;4994563;28;20050;-82
2022/10/18 06:51:10;;;;;;;14.50;10.27;;;12.30;99.90;;;;;;4975031;28;20510;-83
2022/10/18 06:53:38;;;;;;;17.27;10.32;;;12.30;99.90;;;;;;4947580;28;20041;-83
2022/10/18 06:56:06;;;;;;;12.50;10.25;;;12.40;99.90;;;;;;4989470;28;20027;-83
2022/10/18 06:58:33;;;;;;;16.98;10.77;;;12.30;99.90;;;;;;4972177;28;20042;-83
2022/10/18 07:01:08;;;;;;;12.93;10.43;;;12.30;99.90;;;;;;4990067;28;20034;-82
2022/10/18 07:03:34;;;;;;;13.73;11.03;;;12.30;99.90;;;;;;5006301;28;20037;-82
2022/10/18 07:06:02;;;;;;;14.63;10.52;;;12.40;99.90;;;;;;4993314;28;20034;-82
2022/10/18 07:08:28;;;;;;;16.70;11.25;;;12.40;99.90;;;;;;4994027;28;20125;-81
2022/10/18 07:10:54;;;;;;;12.68;10.38;;;12.40;99.90;;;;;;4983352;28;20137;-83
2022/10/18 07:13:21;;;;;;;13.30;10.98;;;12.40;99.90;;;;;;4994912;28;20038;-80
2022/10/18 07:15:47;;;;;;;13.15;10.98;;;12.40;99.90;;;;;;4981019;28;20022;-81
2022/10/18 07:18:13;;;;;;;14.32;10.65;;;12.50;99.90;;;;;;4964041;28;20032;-82
2022/10/18 07:20:39;;;;;;;13.70;10.38;;;12.50;99.90;;;;;;4997832;28;20096;-81
2022/10/18 07:23:07;;;;;;;13.93;10.38;;;12.50;99.90;;;;;;4979462;28;20054;-81
2022/10/18 07:25:34;;;;;;;14.25;11.68;;;12.50;99.90;;;;;;4992734;28;20046;-80
2022/10/18 07:27:59;;;;;;;14.85;11.02;;;12.50;99.90;;;;;;4989421;28;20045;-81
2022/10/18 07:30:25;;;;;;;15.18;10.95;;;12.50;99.90;;;;;;4997107;28;20042;-82
2022/10/18 07:32:51;;;;;;;14.75;11.00;;;12.60;99.90;;;;;;5017043;28;20046;-82
2022/10/18 07:35:17;;;;;;;14.57;11.52;;;12.80;99.90;;;;;;4994633;28;20043;-81
2022/10/18 07:37:43;;;;;;;13.18;9.70;;;13.00;99.90;;;;;;4977381;28;20041;-82
2022/10/18 07:40:10;;;;;;;12.18;9.45;;;13.10;99.90;;;;;;4993240;28;20027;-82
2022/10/18 07:42:36;;;;;;;10.27;9.00;;;13.20;99.90;;;;;;4977344;28;20038;-82
2022/10/18 07:45:03;;;;;;;11.70;9.73;;;13.20;99.90;;;;;;4976587;28;20023;-82
2022/10/18 07:47:29;;;;;;;12.27;8.63;;;13.20;99.90;;;;;;4977356;28;20038;-83
2022/10/18 07:49:54;;;;;;;9.68;8.40;;;13.30;99.90;;;;;;4976031;28;20109;-84
2022/10/18 07:52:20;;;;;;;10.45;8.50;;;13.30;99.90;;;;;;4974003;28;20046;-83
2022/10/18 07:54:46;;;;;;;9.80;8.48;;;13.40;99.90;;;;;;4991396;28;20048;-80
2022/10/18 07:57:11;;;;;;;12.48;9.00;;;13.40;99.90;;;;;;4958096;28;20062;-80
2022/10/18 07:59:37;;;;;;;10.38;8.65;;;13.50;99.90;;;;;;4987940;28;20029;-81
2022/10/18 08:02:03;;;;;;;9.05;7.97;;;13.60;99.90;;;;;;4944519;28;20049;-83
2022/10/18 08:04:29;;;;;;;10.00;8.68;;;13.60;99.90;;;;;;4988245;28;20690;-82
2022/10/18 08:06:55;;;;;;;9.32;8.18;;;13.60;99.90;;;;;;4972363;28;20043;-82
2022/10/18 08:09:20;;;;;;;9.73;8.73;;;13.70;99.90;;;;;;4989930;28;20026;-79
2022/10/18 08:11:46;;;;;;;11.23;7.90;;;13.70;99.90;;;;;;4954363;28;20034;-80
2022/10/18 08:14:12;;;;;;;10.07;8.30;;;13.70;99.90;;;;;;4973840;28;20056;-81
2022/10/18 08:16:37;;;;;;;9.48;7.85;;;13.80;99.90;;;;;;4969515;28;20707;-84
2022/10/18 08:19:03;;;;;;;8.57;7.53;;;14.00;99.90;;;;;;4990516;28;20435;-80
2022/10/18 08:21:29;;;;;;;9.98;8.55;;;14.10;99.90;;;;;;4950683;28;20027;-83
2022/10/18 08:23:54;;;;;;;10.30;7.72;;;14.20;99.90;;;;;;4961298;28;20031;-80
2022/10/18 08:26:22;;;;;;;9.27;7.30;;;14.30;99.90;;;;;;4972106;28;20492;-81
2022/10/18 08:28:49;;;;;;;9.00;7.63;;;14.30;99.90;;;;;;5001249;28;20105;-82
2022/10/18 08:31:17;;;;;;;9.95;8.23;;;14.20;99.90;;;;;;4973886;28;20046;-81
2022/10/18 08:33:44;;;;;;;9.35;8.10;;;14.20;99.90;;;;;;4986664;28;20031;-80
2022/10/18 08:36:12;;;;;;;9.65;7.75;;;14.30;99.90;;;;;;4987655;28;20498;-82
2022/10/18 08:38:39;;;;;;;8.85;7.90;;;14.30;99.90;;;;;;4988416;28;20022;-83
2022/10/18 08:41:20;;;;;;;9.23;7.43;;;14.40;99.90;;;;;;4955502;28;20038;-82
2022/10/18 08:44:02;;;;;;;9.90;7.32;;;14.40;99.90;;;;;;4989761;28;20033;-80
2022/10/18 08:46:30;;;;;;;8.75;7.53;;;14.60;99.90;;;;;;5005369;28;20046;-80
2022/10/18 08:48:58;;;;;;;9.40;7.90;;;14.60;99.90;;;;;;5001570;28;20061;-82
2022/10/18 08:51:40;;;;;;;8.65;7.57;;;14.70;99.90;;;;;;4981907;28;20109;-82
2022/10/18 08:54:12;;;;;;;10.40;7.75;;;14.70;99.90;;;;;;5003174;28;20316;-83
2022/10/18 08:56:41;;;;;;;8.05;6.93;;;14.90;99.90;;;;;;4974888;28;20038;-83
2022/10/18 08:59:11;;;;;;;9.35;7.47;;;15.00;99.90;;;;;;4988479;28;20035;-82
2022/10/18 09:01:46;;;;;;;10.10;8.10;;;15.10;99.90;;;;;;4990131;28;20101;-82
2022/10/18 09:04:33;;;;;;;11.07;8.70;;;15.20;99.90;;;;;;5001979;28;20105;-81
2022/10/18 09:07:07;;;;;;;9.77;7.90;;;15.40;99.90;;;;;;4989595;28;20030;-83
2022/10/18 09:09:42;;;;;;;10.47;7.77;;;15.50;99.90;;;;;;4987713;28;20101;-81
2022/10/18 09:12:33;;;;;;;9.20;7.43;;;15.50;99.90;;;;;;4986112;28;20034;-80
2022/10/18 09:15:28;;;;;;;9.40;7.43;;;15.60;99.90;;;;;;4966499;28;20634;-81
2022/10/18 09:18:17;;;;;;;9.07;7.63;;;15.60;99.90;;;;;;5004958;28;20049;-81
2022/10/18 09:20:56;;;;;;;8.90;7.13;;;15.50;99.90;;;;;;4970572;28;20023;-82
2022/10/18 09:23:42;;;;;;;10.07;7.47;;;15.60;99.90;;;;;;4986465;28;20061;-81
2022/10/18 09:26:14;;;;;;;9.45;7.88;;;15.50;99.90;;;;;;4987893;28;20851;-83
2022/10/18 09:29:26;;;;;;;12.60;8.00;;;15.50;99.90;;;;;;4996555;28;20019;-86
2022/10/18 09:32:16;;;;;;;12.70;8.20;;;15.50;99.90;;;;;;4987630;28;20026;-83
2022/10/18 09:34:54;;;;;;;9.85;7.40;;;15.70;99.90;;;;;;4988750;28;20026;-80
2022/10/18 09:37:22;;;;;;;9.80;6.88;;;15.90;99.90;;;;;;4991455;28;20019;-82
2022/10/18 09:39:55;;;;;;;8.75;6.80;;;16.10;99.90;;;;;;4989462;28;20041;-82
2022/10/18 09:42:36;;;;;;;7.43;6.60;;;16.30;99.90;;;;;;4966103;28;20486;-81
2022/10/18 09:45:14;;;;;;;8.25;6.75;;;16.60;99.90;;;;;;4986008;28;20038;-81
2022/10/18 09:47:51;;;;;;;7.80;6.25;;;16.90;99.90;;;;;;4988783;28;20562;-82
2022/10/18 09:50:23;;;;;;;8.13;6.35;;;17.10;99.90;;;;;;4986684;28;20034;-84
2022/10/18 09:53:25;;;;;;;11.20;6.85;;;17.30;99.90;;;;;;4997722;28;20037;-83
2022/10/18 09:56:03;;;;;;;9.07;5.75;;;17.40;99.90;;;;;;4975873;28;20030;-81
2022/10/18 09:58:43;;;;;;;6.80;5.10;;;17.60;99.90;;;;;;4985845;28;20087;-81
2022/10/18 10:01:12;;;;;;;4.88;4.40;;;17.80;99.90;;;;;;5001912;28;20038;-81
2022/10/18 10:03:38;;;;;;;5.43;4.50;;;18.00;99.90;;;;;;4954536;28;20403;-82
2022/10/18 10:06:10;;;;;;;7.13;4.32;;;18.10;99.90;;;;;;4986006;28;20026;-81
2022/10/18 10:08:39;;;;;;;5.78;3.65;;;18.30;99.90;;;;;;4987165;28;20038;-80
2022/10/18 10:11:35;;;;;;;5.32;4.18;;;18.40;99.90;;;;;;4971982;28;20630;-80
2022/10/18 10:14:12;;;;;;;4.72;3.60;;;18.60;99.90;;;;;;4976210;28;20077;-83
2022/10/18 10:16:52;;;;;;;5.00;3.35;;;18.70;99.90;;;;;;5010409;28;20380;-83
2022/10/18 10:19:29;;;;;;;7.70;3.80;;;18.80;99.90;;;;;;4998367;28;20399;-80
2022/10/18 10:22:02;;;;;;;3.83;3.10;;;19.00;99.90;;;;;;4981158;28;20038;-82
2022/10/18 10:24:33;;;;;;;5.45;3.08;;;19.10;99.90;;;;;;4964520;28;20096;-82
2022/10/18 10:27:04;;;;;;;7.88;3.53;;;19.10;99.90;;;;;;4992325;28;20499;-80
2022/10/18 10:29:54;;;;;;;6.03;2.95;;;19.10;99.90;;;;;;4958201;28;20069;-81
2022/10/18 10:32:21;;;;;;;5.55;3.45;;;19.10;99.90;;;;;;4973859;28;20023;-81
2022/10/18 10:34:48;;;;;;;4.13;3.30;;;19.00;99.90;;;;;;4983864;28;20066;-82
2022/10/18 10:37:26;;;;;;;7.78;3.33;;;18.90;99.90;;;;;;4989061;28;20030;-82
2022/10/18 10:40:19;;;;;;;7.55;4.22;;;18.90;99.90;;;;;;4985136;28;20122;-82
2022/10/18 10:43:01;;;;;;;7.85;3.53;;;18.90;99.90;;;;;;4986306;28;20026;-83
2022/10/18 10:45:42;;;;;;;4.10;3.20;;;18.90;99.90;;;;;;5004942;28;20050;-80
2022/10/18 10:48:17;;;;;;;7.50;3.42;;;19.00;99.90;;;;;;4980701;28;20495;-80
2022/10/18 10:51:00;;;;;;;4.78;3.50;;;19.00;99.90;;;;;;4990292;28;20415;-81
2022/10/18 10:53:36;;;;;;;5.18;3.67;;;19.10;99.90;;;;;;4986930;28;20058;-81
2022/10/18 10:56:03;;;;;;;4.85;3.70;;;19.10;99.90;;;;;;4996346;28;20469;-80
2022/10/18 10:58:39;;;;;;;5.72;2.88;;;19.10;99.90;;;;;;4983009;28;20019;-83
2022/10/18 11:01:27;;;;;;;6.20;3.42;;;19.10;99.90;;;;;;5005970;28;20140;-83
2022/10/18 11:03:59;;;;;;;3.63;3.33;;;19.00;99.90;;;;;;4973703;28;20096;-80
2022/10/18 11:06:32;;;;;;;6.40;2.92;;;18.90;99.90;;;;;;5005679;28;20765;-80
2022/10/18 11:09:02;;;;;;;7.75;3.70;;;18.70;99.90;;;;;;5002564;28;20034;-83
2022/10/18 11:11:35;;;;;;;10.23;4.18;;;18.50;99.90;;;;;;4974569;28;20031;-83
2022/10/18 11:14:12;;;;;;;3.97;3.58;;;18.20;99.90;;;;;;4982583;28;20057;-81
2022/10/18 11:16:57;;;;;;;8.48;4.05;;;18.00;99.90;;;;;;5008520;28;20023;-81
2022/10/18 11:20:08;;;;;;;7.43;3.40;;;17.60;99.90;;;;;;4973467;28;20034;-83
2022/10/18 11:22:58;;;;;;;8.50;3.95;;;17.30;99.90;;;;;;4976371;28;20030;-83
2022/10/18 11:25:50;;;;;;;5.88;4.13;;;17.10;99.90;;;;;;4993106;28;20145;-83
2022/10/18 11:28:39;;;;;;;5.07;3.75;;;17.00;99.90;;;;;;4971044;28;20046;-84
2022/10/18 11:31:34;;;;;;;5.80;3.88;;;16.90;99.90;;;;;;4989513;28;20034;-82
2022/10/18 11:34:08;;;;;;;7.13;4.57;;;16.80;99.90;;;;;;5006268;28;20504;-81
2022/10/18 11:36:40;;;;;;;6.00;4.67;;;16.70;99.90;;;;;;4966596;28;20055;-81
2022/10/18 11:39:32;;;;;;;5.60;4.47;;;16.70;99.90;;;;;;5007088;28;20030;-82
2022/10/18 11:42:16;;;;;;;5.80;4.38;;;16.60;99.90;;;;;;4987965;28;20046;-81
2022/10/18 11:44:53;;;;;;;6.22;4.50;;;16.60;99.90;;;;;;4997317;28;20053;-82
2022/10/18 11:47:36;;;;;;;7.78;4.30;;;16.60;99.90;;;;;;5001412;28;20526;-81
2022/10/18 11:50:15;;;;;;;6.13;4.10;;;16.70;99.90;;;;;;4967844;28;20044;-81
2022/10/18 11:52:47;;;;;;;4.57;3.97;;;16.60;99.90;;;;;;5002991;28;20252;-81
2022/10/18 11:55:21;;;;;;;4.75;4.00;;;16.60;99.90;;;;;;4988220;28;20376;-81
2022/10/18 11:58:06;;;;;;;6.05;4.10;;;16.70;99.90;;;;;;5001767;28;20022;-83
2022/10/18 12:00:39;;;;;;;6.50;5.18;;;16.70;99.90;;;;;;4990682;28;20104;-81
2022/10/18 12:03:19;;;;;;;6.72;4.32;;;16.80;99.90;;;;;;4977049;28;20042;-82
2022/10/18 12:05:47;;;;;;;7.82;4.70;;;16.80;99.90;;;;;;4981047;28;20027;-80
2022/10/18 12:08:32;;;;;;;7.45;4.47;;;16.80;99.90;;;;;;4969918;28;20041;-80
2022/10/18 12:11:04;;;;;;;8.05;4.60;;;16.80;99.90;;;;;;4993681;28;20029;-81
2022/10/18 12:13:39;;;;;;;11.60;4.65;;;16.80;99.90;;;;;;4994144;28;20108;-81
2022/10/18 12:16:08;;;;;;;4.75;4.13;;;16.80;99.90;;;;;;4984878;28;20577;-80
2022/10/18 12:18:41;;;;;;;8.13;5.00;;;16.80;99.90;;;;;;4983450;28;20041;-81
2022/10/18 12:21:10;;;;;;;5.47;3.92;;;16.80;99.90;;;;;;5018074;28;20065;-80
2022/10/18 12:23:50;;;;;;;7.00;4.60;;;16.70;99.90;;;;;;4961623;28;20495;-82
2022/10/18 12:26:16;;;;;;;5.53;4.10;;;16.70;99.90;;;;;;5001793;28;20033;-81
2022/10/18 12:29:15;;;;;;;5.78;4.13;;;16.60;99.90;;;;;;4987701;28;20027;-81
2022/10/18 12:31:50;;;;;;;8.15;4.47;;;16.60;99.90;;;;;;4984196;28;20026;-80
2022/10/18 12:34:16;;;;;;;6.53;4.50;;;16.60;99.90;;;;;;4959725;28;20034;-80
2022/10/18 12:36:54;;;;;;;9.35;5.10;;;16.60;99.90;;;;;;4989562;28;20160;-81
2022/10/18 12:39:29;;;;;;;5.55;4.82;;;16.60;99.90;;;;;;4987715;28;20030;-81
2022/10/18 12:41:56;;;;;;;7.80;4.68;;;16.60;99.90;;;;;;4967997;28;20035;-80
2022/10/18 12:44:33;;;;;;;5.28;4.65;;;16.50;99.90;;;;;;4986222;28;20049;-80
2022/10/18 12:47:02;;;;;;;9.27;4.60;;;16.50;99.90;;;;;;5002836;28;20066;-81
2022/10/18 12:49:34;;;;;;;6.75;4.43;;;16.50;99.90;;;;;;4988456;28;20053;-83
2022/10/18 12:52:22;;;;;;;7.18;4.75;;;16.50;99.90;;;;;;4989038;28;20034;-80
2022/10/18 12:55:11;;;;;;;6.07;4.53;;;16.60;99.90;;;;;;4991751;28;20570;-81
2022/10/18 12:57:52;;;;;;;5.10;4.18;;;16.50;99.90;;;;;;4965515;28;20042;-81
2022/10/18 13:00:30;;;;;;;5.78;5.18;;;16.50;99.90;;;;;;5004933;28;20402;-81